createdAt,value
2022-11-09T00:00:50.121Z,981.209
2022-11-09T00:02:50.706Z,981.220
2022-11-09T00:04:50.708Z,981.205
2022-11-09T00:06:49.988Z,981.194
2022-11-09T00:08:49.908Z,981.203
2022-11-09T00:10:50.427Z,981.184
2022-11-09T00:12:50.060Z,981.168
2022-11-09T00:14:50.631Z,981.151
2022-11-09T00:16:50.674Z,981.121
2022-11-09T00:18:50.206Z,981.053
2022-11-09T00:20:49.852Z,980.987
2022-11-09T00:22:50.437Z,980.999
2022-11-09T00:24:49.978Z,980.949
2022-11-09T00:26:49.965Z,980.880
2022-11-09T00:28:50.492Z,980.870
2022-11-09T00:30:50.116Z,980.896
2022-11-09T00:32:49.838Z,980.916
2022-11-09T00:34:50.119Z,980.916
2022-11-09T00:36:50.098Z,980.875
2022-11-09T00:38:50.779Z,980.835
2022-11-09T00:40:50.360Z,980.810
2022-11-09T00:42:50.273Z,980.797
2022-11-09T00:44:49.842Z,980.772
2022-11-09T00:46:49.865Z,980.848
2022-11-09T00:48:50.417Z,980.902
2022-11-09T00:50:49.921Z,980.912
2022-11-09T00:52:50.592Z,980.961
2022-11-09T00:54:50.177Z,981.006
2022-11-09T00:56:50.186Z,980.998
2022-11-09T00:58:50.788Z,980.988
2022-11-09T01:00:50.406Z,981.024
2022-11-09T01:02:50.287Z,981.014
2022-11-09T01:04:50.525Z,980.977
2022-11-09T01:06:50.829Z,980.966
2022-11-09T01:08:50.592Z,980.945
2022-11-09T01:10:50.218Z,980.949
2022-11-09T01:12:49.860Z,980.949
2022-11-09T01:14:50.411Z,980.908
2022-11-09T01:16:50.350Z,980.833
2022-11-09T01:18:49.883Z,980.817
2022-11-09T01:20:50.462Z,980.897
2022-11-09T01:22:50.110Z,980.873
2022-11-09T01:24:50.045Z,980.786
2022-11-09T01:26:50.470Z,980.814
2022-11-09T01:28:49.981Z,980.796
2022-11-09T01:30:50.549Z,980.828
2022-11-09T01:32:50.094Z,980.821
2022-11-09T01:34:50.089Z,980.743
2022-11-09T01:36:50.188Z,980.739
2022-11-09T01:38:49.845Z,980.677
2022-11-09T01:40:50.490Z,980.715
2022-11-09T01:42:50.101Z,980.709
2022-11-09T01:44:49.877Z,980.738
2022-11-09T01:46:50.836Z,980.716
2022-11-09T01:48:50.495Z,980.695
2022-11-09T01:50:50.246Z,980.663
2022-11-09T01:52:49.937Z,980.646
2022-11-09T01:54:50.594Z,980.599
2022-11-09T01:56:50.604Z,980.579
2022-11-09T01:58:50.224Z,980.601
2022-11-09T02:00:50.044Z,980.647
2022-11-09T02:02:50.742Z,980.656
2022-11-09T02:04:50.808Z,980.628
2022-11-09T02:06:51.002Z,980.635
2022-11-09T02:08:50.780Z,980.695
2022-11-09T02:10:50.399Z,980.614
2022-11-09T02:12:49.889Z,980.626
2022-11-09T02:14:50.548Z,980.611
2022-11-09T02:16:50.598Z,980.534
2022-11-09T02:18:50.323Z,980.579
2022-11-09T02:20:50.170Z,980.565
2022-11-09T02:22:50.715Z,980.514
2022-11-09T02:24:56.825Z,980.529
2022-11-09T02:26:49.782Z,980.505
2022-11-09T02:28:50.411Z,980.551
2022-11-09T02:30:50.214Z,980.586
2022-11-09T02:32:49.813Z,980.638
2022-11-09T02:34:49.939Z,980.658
2022-11-09T02:36:49.983Z,980.639
2022-11-09T02:38:50.436Z,980.687
2022-11-09T02:40:50.205Z,980.724
2022-11-09T02:42:50.079Z,980.803
2022-11-09T02:44:50.694Z,980.818
2022-11-09T02:46:50.715Z,980.841
2022-11-09T02:48:50.405Z,980.775
2022-11-09T02:50:50.117Z,980.673
2022-11-09T02:52:50.772Z,980.653
2022-11-09T02:54:50.364Z,980.657
2022-11-09T02:56:50.385Z,980.658
2022-11-09T02:58:50.159Z,980.673
2022-11-09T03:00:50.786Z,980.668
2022-11-09T03:02:50.769Z,980.680
2022-11-09T03:04:49.918Z,980.703
2022-11-09T03:06:50.217Z,980.749
2022-11-09T03:08:50.800Z,980.705
2022-11-09T03:10:50.539Z,980.720
2022-11-09T03:12:50.166Z,980.698
2022-11-09T03:14:49.879Z,980.698
2022-11-09T03:16:51.351Z,980.793
2022-11-09T03:18:50.062Z,980.823
2022-11-09T03:20:50.627Z,980.859
2022-11-09T03:22:50.289Z,980.880
2022-11-09T03:24:49.941Z,980.896
2022-11-09T03:26:49.933Z,980.895
2022-11-09T03:28:50.660Z,980.895
2022-11-09T03:30:50.185Z,980.910
2022-11-09T03:32:51.137Z,980.934
2022-11-09T03:34:50.154Z,981.062
2022-11-09T03:36:50.250Z,981.093
2022-11-09T03:38:50.817Z,981.286
2022-11-09T03:40:50.384Z,981.296
2022-11-09T03:42:50.078Z,981.204
2022-11-09T03:44:49.828Z,981.107
2022-11-09T03:46:50.633Z,981.117
2022-11-09T03:48:50.187Z,981.109
2022-11-09T03:50:49.887Z,981.172
2022-11-09T03:52:50.795Z,981.048
2022-11-09T03:54:50.566Z,981.009
2022-11-09T03:56:50.586Z,980.933
2022-11-09T03:58:50.125Z,980.993
2022-11-09T04:00:50.687Z,980.955
2022-11-09T04:02:50.241Z,980.877
2022-11-09T04:04:50.287Z,980.923
2022-11-09T04:06:50.630Z,980.984
2022-11-09T04:08:52.009Z,981.027
2022-11-09T04:10:50.707Z,980.956
2022-11-09T04:12:50.321Z,980.962
2022-11-09T04:14:50.049Z,981.060
2022-11-09T04:16:50.008Z,981.078
2022-11-09T04:18:50.582Z,981.109
2022-11-09T04:20:50.238Z,981.108
2022-11-09T04:22:49.847Z,981.156
2022-11-09T04:24:50.564Z,981.105
2022-11-09T04:26:50.514Z,981.061
2022-11-09T04:28:50.011Z,981.048
2022-11-09T04:30:50.591Z,981.037
2022-11-09T04:32:50.253Z,981.060
2022-11-09T04:34:50.259Z,981.082
2022-11-09T04:36:50.251Z,981.136
2022-11-09T04:38:49.857Z,981.062
2022-11-09T04:40:50.553Z,981.086
2022-11-09T04:42:50.307Z,981.121
2022-11-09T04:44:49.833Z,981.048
2022-11-09T04:46:49.805Z,981.037
2022-11-09T04:48:50.491Z,981.055
2022-11-09T04:50:50.277Z,981.012
2022-11-09T04:52:49.933Z,981.023
2022-11-09T04:54:50.475Z,981.176
2022-11-09T04:56:50.391Z,981.150
2022-11-09T04:58:50.033Z,981.217
2022-11-09T05:00:50.725Z,981.237
2022-11-09T05:02:50.428Z,981.267
2022-11-09T05:04:50.474Z,981.315
2022-11-09T05:06:50.629Z,981.320
2022-11-09T05:08:50.692Z,981.300
2022-11-09T05:10:50.478Z,981.312
2022-11-09T05:12:50.079Z,981.318
2022-11-09T05:14:50.557Z,981.346
2022-11-09T05:16:50.649Z,981.345
2022-11-09T05:18:50.277Z,981.393
2022-11-09T05:20:49.937Z,981.488
2022-11-09T05:22:50.657Z,981.540
2022-11-09T05:24:50.282Z,981.542
2022-11-09T05:26:50.302Z,981.534
2022-11-09T05:28:49.896Z,981.528
2022-11-09T05:30:50.534Z,981.588
2022-11-09T05:32:50.281Z,981.527
2022-11-09T05:34:50.569Z,981.621
2022-11-09T05:36:50.540Z,981.579
2022-11-09T05:38:50.120Z,981.545
2022-11-09T05:40:50.685Z,981.574
2022-11-09T05:42:50.356Z,981.684
2022-11-09T05:44:49.857Z,981.729
2022-11-09T05:46:49.866Z,981.843
2022-11-09T05:48:50.525Z,981.847
2022-11-09T05:50:50.103Z,981.989
2022-11-09T05:52:49.836Z,982.098
2022-11-09T05:54:50.407Z,982.118
2022-11-09T05:56:50.460Z,982.022
2022-11-09T05:58:50.091Z,982.009
2022-11-09T06:00:50.648Z,982.023
2022-11-09T06:02:50.485Z,981.905
2022-11-09T06:04:49.803Z,981.897
2022-11-09T06:06:50.984Z,981.949
2022-11-09T06:08:49.901Z,981.968
2022-11-09T06:10:50.514Z,981.957
2022-11-09T06:12:50.205Z,981.880
2022-11-09T06:14:50.781Z,981.878
2022-11-09T06:16:50.620Z,981.892
2022-11-09T06:18:50.238Z,981.904
2022-11-09T06:20:49.880Z,981.806
2022-11-09T06:22:50.462Z,981.737
2022-11-09T06:24:50.007Z,981.900
2022-11-09T06:26:50.197Z,981.964
2022-11-09T06:28:49.807Z,981.926
2022-11-09T06:30:50.448Z,981.953
2022-11-09T06:32:50.091Z,981.957
2022-11-09T06:34:50.332Z,982.059
2022-11-09T06:36:50.381Z,982.134
2022-11-09T06:38:50.116Z,982.061
2022-11-09T06:40:50.754Z,982.079
2022-11-09T06:42:50.650Z,982.067
2022-11-09T06:44:50.410Z,982.067
2022-11-09T06:46:50.238Z,982.008
2022-11-09T06:48:54.952Z,981.991
2022-11-09T06:50:50.585Z,982.005
2022-11-09T06:52:50.354Z,982.037
2022-11-09T06:54:49.991Z,982.068
2022-11-09T06:56:50.343Z,982.164
2022-11-09T06:58:49.891Z,982.169
2022-11-09T07:00:50.621Z,982.181
2022-11-09T07:02:50.184Z,982.175
2022-11-09T07:04:50.129Z,982.179
2022-11-09T07:06:50.240Z,982.225
2022-11-09T07:08:49.849Z,982.252
2022-11-09T07:10:50.334Z,982.231
2022-11-09T07:12:49.964Z,982.186
2022-11-09T07:14:50.460Z,982.268
2022-11-09T07:16:50.306Z,982.207
2022-11-09T07:18:50.725Z,982.239
2022-11-09T07:20:50.374Z,982.296
2022-11-09T07:22:50.813Z,982.310
2022-11-09T07:24:50.361Z,982.259
2022-11-09T07:26:50.083Z,982.286
2022-11-09T07:28:50.458Z,982.305
2022-11-09T07:30:49.999Z,982.283
2022-11-09T07:33:10.565Z,982.278
2022-11-09T07:34:50.808Z,982.317
2022-11-09T07:36:50.754Z,982.350
2022-11-09T07:38:50.286Z,982.371
2022-11-09T07:40:49.821Z,982.453
2022-11-09T07:42:50.497Z,982.452
2022-11-09T07:44:50.040Z,982.392
2022-11-09T07:46:49.840Z,982.392
2022-11-09T07:48:50.289Z,982.353
2022-11-09T07:50:49.865Z,982.400
2022-11-09T07:52:50.351Z,982.367
2022-11-09T07:54:52.759Z,982.398
2022-11-09T07:56:50.421Z,982.383
2022-11-09T07:58:49.820Z,982.384
2022-11-09T08:00:50.373Z,982.384
2022-11-09T08:02:49.883Z,982.325
2022-11-09T08:04:50.767Z,982.387
2022-11-09T08:06:50.785Z,982.356
2022-11-09T08:08:50.331Z,982.347
2022-11-09T08:10:49.848Z,982.347
2022-11-09T08:12:50.340Z,982.408
2022-11-09T08:14:49.859Z,982.515
2022-11-09T08:16:50.621Z,982.482
2022-11-09T08:18:50.267Z,982.485
2022-11-09T08:20:50.738Z,982.553
2022-11-09T08:22:50.319Z,982.583
2022-11-09T08:24:50.022Z,982.703
2022-11-09T08:26:49.992Z,982.663
2022-11-09T08:28:50.457Z,982.698
2022-11-09T08:30:50.118Z,982.618
2022-11-09T08:32:50.682Z,982.651
2022-11-09T08:34:50.650Z,982.692
2022-11-09T08:36:50.491Z,982.739
2022-11-09T08:38:49.979Z,982.683
2022-11-09T08:40:50.614Z,982.613
2022-11-09T08:42:50.041Z,982.594
2022-11-09T08:44:50.472Z,982.598
2022-11-09T08:46:50.424Z,982.609
2022-11-09T08:48:49.979Z,982.586
2022-11-09T08:50:50.565Z,982.704
2022-11-09T08:52:50.044Z,982.758
2022-11-09T08:54:50.582Z,982.807
2022-11-09T08:56:50.334Z,982.867
2022-11-09T08:58:49.974Z,982.817
2022-11-09T09:00:50.506Z,982.806
2022-11-09T09:02:50.033Z,982.823
2022-11-09T09:04:49.891Z,982.894
2022-11-09T09:06:50.818Z,982.899
2022-11-09T09:08:50.426Z,982.833
2022-11-09T09:10:49.947Z,982.808
2022-11-09T09:12:50.410Z,982.808
2022-11-09T09:14:50.025Z,982.830
2022-11-09T09:16:49.807Z,982.926
2022-11-09T09:18:50.458Z,982.950
2022-11-09T09:20:49.974Z,983.005
2022-11-09T09:22:50.638Z,983.215
2022-11-09T09:24:50.082Z,983.164
2022-11-09T09:26:50.056Z,983.094
2022-11-09T09:28:50.576Z,983.097
2022-11-09T09:30:50.072Z,983.086
2022-11-09T09:32:50.731Z,983.086
2022-11-09T09:34:50.668Z,983.084
2022-11-09T09:36:50.539Z,983.076
2022-11-09T09:38:50.029Z,983.015
2022-11-09T09:40:50.711Z,983.054
2022-11-09T09:42:50.230Z,983.034
2022-11-09T09:44:49.882Z,982.982
2022-11-09T09:46:50.797Z,982.975
2022-11-09T09:48:50.293Z,982.894
2022-11-09T09:50:49.940Z,982.824
2022-11-09T09:53:23.604Z,982.826
2022-11-09T09:54:52.367Z,982.778
2022-11-09T09:56:50.329Z,982.784
2022-11-09T09:58:49.971Z,982.784
2022-11-09T10:00:50.421Z,982.732
2022-11-09T10:02:49.938Z,982.683
2022-11-09T10:04:49.953Z,982.734
2022-11-09T10:06:50.002Z,982.768
2022-11-09T10:08:50.815Z,982.727
2022-11-09T10:10:50.295Z,982.718
2022-11-09T10:12:49.852Z,982.650
2022-11-09T10:14:50.365Z,982.598
2022-11-09T10:16:50.171Z,982.546
2022-11-09T10:18:50.703Z,982.550
2022-11-09T10:20:53.385Z,982.527
2022-11-09T10:22:50.068Z,982.519
2022-11-09T10:25:43.898Z,982.535
2022-11-09T10:26:50.615Z,982.587
2022-11-09T10:29:15.897Z,982.641
2022-11-09T10:30:50.420Z,982.563
2022-11-09T10:32:50.037Z,982.514
2022-11-09T10:34:50.339Z,982.499
2022-11-09T10:36:50.254Z,982.441
2022-11-09T10:38:49.832Z,982.329
2022-11-09T10:40:50.431Z,982.333
2022-11-09T10:42:50.006Z,982.321
2022-11-09T10:44:50.465Z,982.342
2022-11-09T10:46:50.487Z,982.415
2022-11-09T10:48:50.033Z,982.403
2022-11-09T10:50:50.690Z,982.482
2022-11-09T10:52:50.258Z,982.494
2022-11-09T10:54:49.788Z,982.466
2022-11-09T10:57:07.036Z,982.403
2022-11-09T10:58:50.153Z,982.394
2022-11-09T11:00:50.674Z,982.377
2022-11-09T11:02:50.118Z,982.377
2022-11-09T11:04:50.270Z,982.367
2022-11-09T11:06:50.490Z,982.334
2022-11-09T11:08:50.272Z,982.298
2022-11-09T11:11:27.489Z,982.245
2022-11-09T11:12:50.672Z,982.141
2022-11-09T11:14:50.166Z,982.083
2022-11-09T11:16:50.234Z,982.083
2022-11-09T11:18:50.768Z,982.065
2022-11-09T11:20:50.462Z,982.035
2022-11-09T11:22:49.960Z,981.955
2022-11-09T11:24:50.728Z,982.000
2022-11-09T11:26:50.580Z,981.916
2022-11-09T11:28:49.973Z,981.966
2022-11-09T11:30:50.496Z,981.889
2022-11-09T11:32:51.304Z,981.899
2022-11-09T11:35:02.064Z,981.855
2022-11-09T11:36:50.747Z,981.850
2022-11-09T11:38:50.332Z,981.862
2022-11-09T11:40:50.749Z,981.860
2022-11-09T11:42:50.310Z,981.877
2022-11-09T11:45:33.920Z,981.925
2022-11-09T11:46:49.853Z,981.942
2022-11-09T11:48:50.396Z,981.945
2022-11-09T11:50:49.913Z,981.856
2022-11-09T11:52:50.442Z,981.815
2022-11-09T11:54:49.923Z,981.827
2022-11-09T11:56:50.713Z,981.832
2022-11-09T11:58:50.232Z,981.745
2022-11-09T12:00:49.815Z,981.713
2022-11-09T12:02:50.516Z,981.737
2022-11-09T12:04:50.796Z,981.699
2022-11-09T12:06:50.814Z,981.672
2022-11-09T12:08:50.670Z,981.599
2022-11-09T12:10:50.159Z,981.575
2022-11-09T12:12:50.761Z,981.589
2022-11-09T12:14:50.243Z,981.601
2022-11-09T12:16:50.184Z,981.589
2022-11-09T12:18:50.631Z,981.568
2022-11-09T12:20:50.103Z,981.531
2022-11-09T12:22:50.614Z,981.528
2022-11-09T12:24:50.124Z,981.483
2022-11-09T12:27:30.799Z,981.471
2022-11-09T12:28:50.722Z,981.482
2022-11-09T12:30:50.307Z,981.482
2022-11-09T12:32:50.772Z,981.390
2022-11-09T12:34:50.634Z,981.401
2022-11-09T12:36:50.368Z,981.476
2022-11-09T12:38:49.998Z,981.438
2022-11-09T12:40:50.621Z,981.443
2022-11-09T12:42:50.285Z,981.413
2022-11-09T12:44:49.859Z,981.411
2022-11-09T12:46:50.551Z,981.410
2022-11-09T12:48:50.048Z,981.441
2022-11-09T12:50:50.674Z,981.427
2022-11-09T12:52:50.343Z,981.433
2022-11-09T12:54:49.833Z,981.433
2022-11-09T12:56:51.007Z,981.424
2022-11-09T12:58:49.901Z,981.424
2022-11-09T13:00:49.853Z,981.396
2022-11-09T13:02:50.413Z,981.363
2022-11-09T13:04:50.613Z,981.405
2022-11-09T13:06:50.840Z,981.405
2022-11-09T13:08:50.792Z,981.473
2022-11-09T13:10:50.614Z,981.501
2022-11-09T13:12:50.246Z,981.479
2022-11-09T13:14:49.877Z,981.452
2022-11-09T13:16:49.821Z,981.455
2022-11-09T13:18:50.253Z,981.436
2022-11-09T13:20:57.851Z,981.400
2022-11-09T13:22:49.939Z,981.377
2022-11-09T13:24:50.487Z,981.377
2022-11-09T13:26:50.437Z,981.391
2022-11-09T13:28:50.020Z,981.433
2022-11-09T13:30:50.639Z,981.466
2022-11-09T13:32:50.272Z,981.437
2022-11-09T13:34:50.218Z,981.415
2022-11-09T13:36:50.319Z,981.382
2022-11-09T13:38:49.856Z,981.455
2022-11-09T13:40:50.493Z,981.491
2022-11-09T13:42:50.079Z,981.466
2022-11-09T13:44:50.792Z,981.493
2022-11-09T13:46:50.630Z,981.531
2022-11-09T13:48:50.314Z,981.508
2022-11-09T13:50:56.969Z,981.558
2022-11-09T13:52:50.105Z,981.572
2022-11-09T13:54:50.686Z,981.622
2022-11-09T13:56:50.360Z,981.655
2022-11-09T13:58:49.813Z,981.671
2022-11-09T14:00:50.254Z,981.736
2022-11-09T14:02:49.851Z,981.764
2022-11-09T14:04:49.955Z,981.770
2022-11-09T14:06:49.974Z,981.727
2022-11-09T14:08:50.683Z,981.712
2022-11-09T14:10:50.308Z,981.690
2022-11-09T14:12:49.913Z,981.699
2022-11-09T14:14:50.372Z,981.731
2022-11-09T14:16:50.122Z,981.725
2022-11-09T14:18:50.553Z,981.740
2022-11-09T14:20:50.133Z,981.775
2022-11-09T14:22:50.732Z,981.787
2022-11-09T14:24:50.175Z,981.816
2022-11-09T14:26:49.954Z,981.806
2022-11-09T14:28:50.373Z,981.826
2022-11-09T14:30:50.059Z,981.813
2022-11-09T14:32:50.560Z,981.834
2022-11-09T14:34:50.420Z,981.827
2022-11-09T14:36:50.185Z,981.858
2022-11-09T14:38:49.883Z,981.795
2022-11-09T14:40:50.487Z,981.842
2022-11-09T14:42:49.893Z,981.846
2022-11-09T14:44:50.455Z,981.865
2022-11-09T14:46:50.407Z,981.870
2022-11-09T14:48:49.971Z,981.873
2022-11-09T14:50:50.499Z,981.914
2022-11-09T14:52:50.167Z,981.909
2022-11-09T14:54:50.710Z,981.936
2022-11-09T14:56:50.494Z,981.923
2022-11-09T14:58:50.053Z,981.981
2022-11-09T15:00:50.730Z,981.942
2022-11-09T15:02:50.211Z,981.944
2022-11-09T15:04:50.287Z,981.956
2022-11-09T15:06:50.438Z,981.932
2022-11-09T15:08:50.051Z,981.969
2022-11-09T15:10:50.527Z,981.988
2022-11-09T15:12:50.021Z,981.983
2022-11-09T15:14:50.635Z,982.026
2022-11-09T15:16:50.480Z,982.056
2022-11-09T15:18:49.922Z,982.058
2022-11-09T15:20:50.415Z,982.134
2022-11-09T15:22:49.979Z,982.158
2022-11-09T15:24:50.527Z,982.156
2022-11-09T15:26:50.424Z,982.178
2022-11-09T15:28:49.839Z,982.204
2022-11-09T15:30:50.591Z,982.188
2022-11-09T15:32:50.010Z,982.214
2022-11-09T15:34:49.978Z,982.190
2022-11-09T15:36:50.736Z,982.286
2022-11-09T15:38:50.172Z,982.278
2022-11-09T15:40:50.599Z,982.247
2022-11-09T15:42:50.115Z,982.272
2022-11-09T15:44:50.782Z,982.269
2022-11-09T15:46:49.803Z,982.315
2022-11-09T15:48:50.428Z,982.302
2022-11-09T15:50:49.941Z,982.280
2022-11-09T15:52:50.534Z,982.292
2022-11-09T15:54:50.031Z,982.312
2022-11-09T15:56:49.840Z,982.295
2022-11-09T15:58:50.230Z,982.320
2022-11-09T16:00:50.037Z,982.322
2022-11-09T16:02:50.666Z,982.357
2022-11-09T16:04:50.562Z,982.351
2022-11-09T16:06:50.711Z,982.357
2022-11-09T16:08:50.484Z,982.375
2022-11-09T16:10:50.049Z,982.375
2022-11-09T16:12:50.397Z,982.452
2022-11-09T16:14:49.835Z,982.445
2022-11-09T16:16:50.642Z,982.370
2022-11-09T16:18:50.084Z,982.397
2022-11-09T16:20:50.547Z,982.436
2022-11-09T16:22:50.106Z,982.476
2022-11-09T16:24:50.643Z,982.490
2022-11-09T16:26:50.490Z,982.520
2022-11-09T16:28:50.029Z,982.540
2022-11-09T16:30:50.547Z,982.544
2022-11-09T16:32:50.110Z,982.544
2022-11-09T16:38:50.732Z,982.585
2022-11-09T16:40:50.228Z,982.586
2022-11-09T16:42:50.696Z,982.615
2022-11-09T16:44:50.328Z,982.657
2022-11-09T16:46:50.251Z,982.660
2022-11-09T16:48:50.746Z,982.668
2022-11-09T16:50:50.149Z,982.668
2022-11-09T16:52:50.716Z,982.710
2022-11-09T16:54:50.188Z,982.710
2022-11-09T16:56:50.085Z,982.740
2022-11-09T16:58:50.470Z,982.749
2022-11-09T17:01:12.315Z,982.779
2022-11-09T17:02:50.562Z,982.814
2022-11-09T17:04:50.401Z,982.798
2022-11-09T17:06:50.459Z,982.797
2022-11-09T17:08:50.209Z,982.854
2022-11-09T17:10:50.672Z,982.845
2022-11-09T17:12:50.251Z,982.907
2022-11-09T17:14:50.713Z,982.896
2022-11-09T17:16:50.744Z,982.932
2022-11-09T17:18:50.267Z,982.936
2022-11-09T17:20:49.921Z,982.935
2022-11-09T17:22:50.491Z,982.963
2022-11-09T17:24:50.082Z,983.006
2022-11-09T17:26:49.832Z,983.021
2022-11-09T17:28:50.257Z,983.061
2022-11-09T17:30:50.736Z,983.020
2022-11-09T17:32:50.272Z,983.054
2022-11-09T17:34:50.161Z,983.040
2022-11-09T17:37:05.531Z,983.041
2022-11-09T17:38:50.318Z,983.085
2022-11-09T17:40:50.723Z,983.137
2022-11-09T17:42:50.491Z,983.154
2022-11-09T17:44:49.911Z,983.181
2022-11-09T17:46:50.659Z,983.207
2022-11-09T17:48:50.062Z,983.245
2022-11-09T17:50:50.586Z,983.237
2022-11-09T17:52:50.029Z,983.243
2022-11-09T17:54:50.498Z,983.261
2022-11-09T17:56:50.346Z,983.326
2022-11-09T17:58:49.933Z,983.395
2022-11-09T18:00:50.619Z,983.398
2022-11-09T18:02:50.296Z,983.391
2022-11-09T18:04:50.300Z,983.377
2022-11-09T18:06:50.385Z,983.443
2022-11-09T18:09:39.467Z,983.443
2022-11-09T18:10:49.947Z,983.470
2022-11-09T18:12:50.324Z,983.487
2022-11-09T18:14:49.841Z,983.513
2022-11-09T18:16:50.640Z,983.543
2022-11-09T18:18:50.193Z,983.541
2022-11-09T18:20:50.654Z,983.612
2022-11-09T18:22:50.292Z,983.626
2022-11-09T18:24:50.694Z,983.656
2022-11-09T18:26:50.628Z,983.730
2022-11-09T18:28:50.048Z,983.695
2022-11-09T18:30:50.683Z,983.706
2022-11-09T18:32:50.177Z,983.723
2022-11-09T18:34:50.245Z,983.785
2022-11-09T18:36:50.220Z,983.796
2022-11-09T18:38:50.710Z,983.769
2022-11-09T18:40:50.263Z,983.786
2022-11-09T18:42:50.609Z,983.815
2022-11-09T18:44:50.226Z,983.848
2022-11-09T18:46:50.157Z,983.875
2022-11-09T18:48:50.721Z,983.898
2022-11-09T18:50:50.159Z,983.920
2022-11-09T18:52:49.880Z,983.955
2022-11-09T18:54:50.527Z,983.987
2022-11-09T18:56:50.642Z,984.004
2022-11-09T18:58:50.134Z,984.005
2022-11-09T19:00:50.738Z,984.056
2022-11-09T19:02:50.348Z,984.090
2022-11-09T19:04:50.423Z,984.084
2022-11-09T19:06:50.274Z,984.107
2022-11-09T19:08:50.163Z,984.101
2022-11-09T19:10:50.679Z,984.082
2022-11-09T19:12:50.225Z,984.069
2022-11-09T19:14:50.682Z,984.052
2022-11-09T19:16:50.599Z,984.011
2022-11-09T19:18:50.041Z,983.987
2022-11-09T19:20:50.564Z,983.974
2022-11-09T19:22:49.969Z,984.063
2022-11-09T19:24:50.548Z,984.060
2022-11-09T19:26:50.488Z,984.099
2022-11-09T19:28:50.001Z,984.129
2022-11-09T19:30:50.393Z,984.125
2022-11-09T19:32:49.867Z,984.093
2022-11-09T19:34:50.797Z,984.147
2022-11-09T19:36:50.592Z,984.139
2022-11-09T19:38:50.179Z,984.191
2022-11-09T19:40:50.588Z,984.188
2022-11-09T19:42:50.123Z,984.223
2022-11-09T19:44:56.972Z,984.234
2022-11-09T19:46:49.945Z,984.231
2022-11-09T19:48:50.521Z,984.247
2022-11-09T19:50:50.220Z,984.238
2022-11-09T19:52:50.759Z,984.274
2022-11-09T19:54:50.337Z,984.237
2022-11-09T19:56:50.290Z,984.245
2022-11-09T19:58:49.867Z,984.288
2022-11-09T20:00:50.724Z,984.289
2022-11-09T20:02:50.648Z,984.323
2022-11-09T20:04:49.844Z,984.302
2022-11-09T20:06:50.059Z,984.281
2022-11-09T20:08:50.797Z,984.329
2022-11-09T20:10:50.415Z,984.350
2022-11-09T20:12:50.075Z,984.365
2022-11-09T20:14:50.619Z,984.395
2022-11-09T20:16:50.763Z,984.458
2022-11-09T20:18:50.200Z,984.465
2022-11-09T20:20:50.802Z,984.447
2022-11-09T20:22:50.394Z,984.515
2022-11-09T20:24:49.882Z,984.535
2022-11-09T20:26:50.661Z,984.524
2022-11-09T20:28:50.072Z,984.567
2022-11-09T20:30:49.890Z,984.617
2022-11-09T20:32:50.292Z,984.679
2022-11-09T20:34:50.188Z,984.677
2022-11-09T20:36:50.023Z,984.653
2022-11-09T20:38:50.535Z,984.678
2022-11-09T20:40:50.044Z,984.751
2022-11-09T20:42:50.540Z,984.805
2022-11-09T20:44:50.002Z,984.810
2022-11-09T20:46:49.978Z,984.810
2022-11-09T20:48:56.187Z,984.858
2022-11-09T20:50:49.874Z,984.878
2022-11-09T20:52:50.375Z,984.899
2022-11-09T20:54:49.921Z,984.906
2022-11-09T20:56:50.767Z,984.948
2022-11-09T20:58:50.210Z,984.963
2022-11-09T21:00:50.712Z,984.990
2022-11-09T21:02:50.335Z,984.996
2022-11-09T21:04:50.389Z,985.008
2022-11-09T21:06:50.313Z,985.034
2022-11-09T21:08:50.173Z,985.063
2022-11-09T21:10:50.633Z,985.063
2022-11-09T21:12:50.154Z,985.092
2022-11-09T21:14:50.547Z,985.092
2022-11-09T21:16:50.342Z,985.228
2022-11-09T21:18:49.824Z,985.205
2022-11-09T21:20:50.381Z,985.235
2022-11-09T21:22:49.854Z,985.235
2022-11-09T21:24:50.456Z,985.317
2022-11-09T21:26:50.364Z,985.316
2022-11-09T21:28:49.967Z,985.365
2022-11-09T21:30:50.454Z,985.303
2022-11-09T21:32:50.161Z,985.397
2022-11-09T21:34:50.308Z,985.422
2022-11-09T21:36:50.162Z,985.422
2022-11-09T21:38:50.711Z,985.435
2022-11-09T21:40:50.218Z,985.487
2022-11-09T21:42:49.946Z,985.497
2022-11-09T21:44:50.357Z,985.541
2022-11-09T21:46:50.274Z,985.552
2022-11-09T21:48:49.817Z,985.525
2022-11-09T21:50:50.415Z,985.547
2022-11-09T21:52:49.954Z,985.558
2022-11-09T21:54:50.558Z,985.584
2022-11-09T21:56:50.482Z,985.553
2022-11-09T21:58:50.106Z,985.552
2022-11-09T22:00:50.617Z,985.602
2022-11-09T22:02:50.337Z,985.582
2022-11-09T22:04:50.605Z,985.587
2022-11-09T22:06:50.515Z,985.578
2022-11-09T22:08:50.324Z,985.610
2022-11-09T22:10:49.978Z,985.664
2022-11-09T22:12:50.787Z,985.693
2022-11-09T22:14:50.273Z,985.687
2022-11-09T22:16:50.091Z,985.687
2022-11-09T22:18:50.653Z,985.703
2022-11-09T22:20:50.221Z,985.737
2022-11-09T22:22:50.695Z,985.729
2022-11-09T22:24:50.286Z,985.729
2022-11-09T22:26:50.298Z,985.791
2022-11-09T22:28:50.104Z,985.791
2022-11-09T22:30:50.569Z,985.818
2022-11-09T22:32:50.053Z,985.860
2022-11-09T22:34:50.185Z,985.879
2022-11-09T22:36:50.040Z,985.876
2022-11-09T22:38:50.517Z,985.854
2022-11-09T22:40:49.974Z,985.894
2022-11-09T22:42:50.523Z,985.894
2022-11-09T22:44:49.997Z,985.923
2022-11-09T22:46:50.042Z,985.954
2022-11-09T22:48:50.578Z,985.948
2022-11-09T22:50:50.176Z,985.977
2022-11-09T22:52:54.503Z,985.977
2022-11-09T22:54:50.772Z,986.011
2022-11-09T22:56:50.657Z,986.035
2022-11-09T22:58:50.139Z,986.090
2022-11-09T23:00:50.579Z,986.075
2022-11-09T23:02:50.106Z,986.181
2022-11-09T23:04:50.135Z,986.192
2022-11-09T23:06:50.127Z,986.222
2022-11-09T23:08:49.880Z,986.268
2022-11-09T23:10:50.323Z,986.267
2022-11-09T23:12:49.824Z,986.337
2022-11-09T23:14:50.208Z,986.371
2022-11-09T23:16:50.084Z,986.433
2022-11-09T23:18:50.495Z,986.386
2022-11-09T23:20:50.027Z,986.453
2022-11-09T23:22:50.498Z,986.464
2022-11-09T23:24:50.116Z,986.450
2022-11-09T23:26:49.986Z,986.479
2022-11-09T23:28:50.586Z,986.507
2022-11-09T23:30:50.142Z,986.550
2022-11-09T23:32:50.748Z,986.639
2022-11-09T23:34:49.824Z,986.687
2022-11-09T23:36:50.660Z,986.705
2022-11-09T23:38:50.102Z,986.708
2022-11-09T23:40:50.766Z,986.779
2022-11-09T23:42:50.289Z,986.800
2022-11-09T23:44:49.866Z,986.782
2022-11-09T23:46:50.675Z,986.791
2022-11-09T23:48:50.259Z,986.824
2022-11-09T23:50:50.682Z,986.779
2022-11-09T23:52:50.179Z,986.798
2022-11-09T23:54:49.814Z,986.835
2022-11-09T23:56:50.742Z,986.872
2022-11-09T23:58:52.150Z,986.851
